sensor_id;sensor_type;location;lat;lon;timestamp;pressure;altitude;pressure_sealevel;temperature;humidity
37648;BME280;23490;53.656;10.076;2022-08-03T00:01:37;55760.25;;;-145.95;71.07
37648;BME280;23490;53.656;10.076;2022-08-03T00:04:04;55803.09;;;-145.95;71.41
37648;BME280;23490;53.656;10.076;2022-08-03T00:06:30;55819.41;;;-145.95;71.48
37648;BME280;23490;53.656;10.076;2022-08-03T00:08:55;55756.19;;;-145.95;71.88
37648;BME280;23490;53.656;10.076;2022-08-03T00:11:21;55850.00;;;-145.95;71.54
37648;BME280;23490;53.656;10.076;2022-08-03T00:13:46;55796.97;;;-145.95;71.91
37648;BME280;23490;53.656;10.076;2022-08-03T00:16:12;55788.81;;;-145.95;72.82
37648;BME280;23490;53.656;10.076;2022-08-03T00:18:39;55768.41;;;-145.95;72.77
37648;BME280;23490;53.656;10.076;2022-08-03T00:21:04;55776.56;;;-145.95;73.39
37648;BME280;23490;53.656;10.076;2022-08-03T00:23:30;55796.97;;;-145.95;73.53
37648;BME280;23490;53.656;10.076;2022-08-03T00:25:56;55743.94;;;-145.95;73.15
37648;BME280;23490;53.656;10.076;2022-08-03T00:28:21;55796.97;;;-145.95;73.47
37648;BME280;23490;53.656;10.076;2022-08-03T00:30:47;55784.72;;;-145.95;73.55
37648;BME280;23490;53.656;10.076;2022-08-03T00:33:12;55821.44;;;-145.95;73.33
37648;BME280;23490;53.656;10.076;2022-08-03T00:35:37;55788.81;;;-145.95;73.55
37648;BME280;23490;53.656;10.076;2022-08-03T00:38:03;55780.66;;;-145.95;73.80
37648;BME280;23490;53.656;10.076;2022-08-03T00:40:29;55768.41;;;-145.95;73.78
37648;BME280;23490;53.656;10.076;2022-08-03T00:43:00;55735.78;;;-145.95;74.13
37648;BME280;23490;53.656;10.076;2022-08-03T00:45:28;55764.34;;;-145.95;73.83
37648;BME280;23490;53.656;10.076;2022-08-03T00:47:54;55788.81;;;-145.95;74.45
37648;BME280;23490;53.656;10.076;2022-08-03T00:50:22;55792.88;;;-145.95;74.35
37648;BME280;23490;53.656;10.076;2022-08-03T00:52:49;55803.09;;;-145.95;74.28
37648;BME280;23490;53.656;10.076;2022-08-03T00:55:15;55776.56;;;-145.95;73.85
37648;BME280;23490;53.656;10.076;2022-08-03T00:57:42;55796.97;;;-145.95;74.30
37648;BME280;23490;53.656;10.076;2022-08-03T01:00:09;55780.66;;;-145.95;75.31
37648;BME280;23490;53.656;10.076;2022-08-03T01:02:35;55764.34;;;-145.95;75.21
37648;BME280;23490;53.656;10.076;2022-08-03T01:05:01;55780.66;;;-145.95;75.43
37648;BME280;23490;53.656;10.076;2022-08-03T01:10:05;55809.19;;;-145.95;76.00
37648;BME280;23490;53.656;10.076;2022-08-03T01:12:49;55809.19;;;-145.95;76.46
37648;BME280;23490;53.656;10.076;2022-08-03T01:15:24;55772.50;;;-145.95;76.35
37648;BME280;23490;53.656;10.076;2022-08-03T01:18:04;55780.66;;;-145.95;76.63
37648;BME280;23490;53.656;10.076;2022-08-03T01:20:33;55764.34;;;-145.95;76.77
37648;BME280;23490;53.656;10.076;2022-08-03T01:31:10;55805.13;;;-145.95;76.63
37648;BME280;23490;53.656;10.076;2022-08-03T01:33:46;55748.03;;;-145.95;76.46
37648;BME280;23490;53.656;10.076;2022-08-03T01:36:17;55772.50;;;-145.95;75.83
37648;BME280;23490;53.656;10.076;2022-08-03T01:38:49;55782.69;;;-145.95;76.30
37648;BME280;23490;53.656;10.076;2022-08-03T01:41:21;55780.66;;;-145.95;76.40
37648;BME280;23490;53.656;10.076;2022-08-03T01:43:50;55737.84;;;-145.95;76.31
37648;BME280;23490;53.656;10.076;2022-08-03T01:46:18;55752.09;;;-145.95;76.27
37648;BME280;23490;53.656;10.076;2022-08-03T01:48:46;55805.13;;;-145.95;75.69
37648;BME280;23490;53.656;10.076;2022-08-03T01:51:12;55768.41;;;-145.95;76.59
37648;BME280;23490;53.656;10.076;2022-08-03T01:53:40;55813.28;;;-145.95;76.66
37648;BME280;23490;53.656;10.076;2022-08-03T01:56:08;55786.78;;;-145.95;76.19
37648;BME280;23490;53.656;10.076;2022-08-03T01:58:35;55799.00;;;-145.95;76.26
37648;BME280;23490;53.656;10.076;2022-08-03T02:01:02;55796.97;;;-145.95;76.26
37648;BME280;23490;53.656;10.076;2022-08-03T02:03:30;55756.19;;;-145.95;76.49
37648;BME280;23490;53.656;10.076;2022-08-03T02:05:59;55809.19;;;-145.95;76.56
37648;BME280;23490;53.656;10.076;2022-08-03T02:08:26;55768.41;;;-145.95;76.35
37648;BME280;23490;53.656;10.076;2022-08-03T02:10:54;55772.50;;;-145.95;76.70
37648;BME280;23490;53.656;10.076;2022-08-03T02:13:21;55752.09;;;-145.95;76.87
37648;BME280;23490;53.656;10.076;2022-08-03T02:15:48;55772.50;;;-145.95;77.07
37648;BME280;23490;53.656;10.076;2022-08-03T02:18:17;55796.97;;;-145.95;76.96
37648;BME280;23490;53.656;10.076;2022-08-03T02:20:43;55752.09;;;-145.95;77.18
37648;BME280;23490;53.656;10.076;2022-08-03T02:23:08;55796.97;;;-145.95;77.58
37648;BME280;23490;53.656;10.076;2022-08-03T02:25:40;55796.97;;;-145.95;77.57
37648;BME280;23490;53.656;10.076;2022-08-03T02:28:15;55762.31;;;-145.95;78.19
37648;BME280;23490;53.656;10.076;2022-08-03T02:30:43;55768.41;;;-145.95;77.68
37648;BME280;23490;53.656;10.076;2022-08-03T02:33:13;55780.66;;;-145.95;77.71
37648;BME280;23490;53.656;10.076;2022-08-03T02:35:41;55703.16;;;-145.95;77.94
37648;BME280;23490;53.656;10.076;2022-08-03T02:38:09;55786.78;;;-145.95;78.11
37648;BME280;23490;53.656;10.076;2022-08-03T02:40:35;55796.97;;;-145.95;77.74
37648;BME280;23490;53.656;10.076;2022-08-03T02:43:07;55786.78;;;-145.95;78.30
37648;BME280;23490;53.656;10.076;2022-08-03T02:45:35;55794.94;;;-145.95;78.71
37648;BME280;23490;53.656;10.076;2022-08-03T02:48:07;55784.72;;;-145.95;78.78
37648;BME280;23490;53.656;10.076;2022-08-03T02:50:35;55809.19;;;-145.95;78.64
37648;BME280;23490;53.656;10.076;2022-08-03T02:53:02;55764.34;;;-145.95;79.55
37648;BME280;23490;53.656;10.076;2022-08-03T02:55:29;55792.88;;;-145.95;79.30
37648;BME280;23490;53.656;10.076;2022-08-03T02:57:56;55784.72;;;-145.95;80.85
37648;BME280;23490;53.656;10.076;2022-08-03T03:00:22;55792.88;;;-145.95;80.07
37648;BME280;23490;53.656;10.076;2022-08-03T03:02:48;55752.09;;;-145.95;80.03
37648;BME280;23490;53.656;10.076;2022-08-03T03:05:15;55772.50;;;-145.95;79.98
37648;BME280;23490;53.656;10.076;2022-08-03T03:07:41;55780.66;;;-145.95;80.13
37648;BME280;23490;53.656;10.076;2022-08-03T03:10:07;55792.88;;;-145.95;80.30
37648;BME280;23490;53.656;10.076;2022-08-03T03:12:35;55752.09;;;-145.95;80.40
37648;BME280;23490;53.656;10.076;2022-08-03T03:15:03;55772.50;;;-145.95;80.08
37648;BME280;23490;53.656;10.076;2022-08-03T03:17:29;55788.81;;;-145.95;80.83
37648;BME280;23490;53.656;10.076;2022-08-03T03:19:56;55762.31;;;-145.95;80.29
37648;BME280;23490;53.656;10.076;2022-08-03T03:22:22;55784.72;;;-145.95;81.04
37648;BME280;23490;53.656;10.076;2022-08-03T03:24:49;55788.81;;;-145.95;81.28
37648;BME280;23490;53.656;10.076;2022-08-03T03:27:16;55764.34;;;-145.95;81.46
37648;BME280;23490;53.656;10.076;2022-08-03T03:29:42;55764.34;;;-145.95;81.23
37648;BME280;23490;53.656;10.076;2022-08-03T03:32:08;55796.97;;;-145.95;80.90
37648;BME280;23490;53.656;10.076;2022-08-03T03:34:34;55799.00;;;-145.95;81.25
37648;BME280;23490;53.656;10.076;2022-08-03T03:37:00;55788.81;;;-145.95;81.08
37648;BME280;23490;53.656;10.076;2022-08-03T03:39:26;55768.41;;;-145.95;81.09
37648;BME280;23490;53.656;10.076;2022-08-03T03:41:51;55748.03;;;-145.95;80.41
37648;BME280;23490;53.656;10.076;2022-08-03T03:44:16;55803.09;;;-145.95;81.95
37648;BME280;23490;53.656;10.076;2022-08-03T03:46:42;55792.88;;;-145.95;81.67
37648;BME280;23490;53.656;10.076;2022-08-03T03:49:07;55756.19;;;-145.95;81.63
37648;BME280;23490;53.656;10.076;2022-08-03T03:51:33;55805.13;;;-145.95;81.17
37648;BME280;23490;53.656;10.076;2022-08-03T03:54:00;55813.28;;;-145.95;81.52
37648;BME280;23490;53.656;10.076;2022-08-03T03:56:26;55799.00;;;-145.95;81.53
37648;BME280;23490;53.656;10.076;2022-08-03T03:58:52;55788.81;;;-145.95;82.32
37648;BME280;23490;53.656;10.076;2022-08-03T04:01:18;55792.88;;;-145.95;81.41
37648;BME280;23490;53.656;10.076;2022-08-03T04:03:43;55768.41;;;-145.95;81.36
37648;BME280;23490;53.656;10.076;2022-08-03T04:06:09;55796.97;;;-145.95;81.28
37648;BME280;23490;53.656;10.076;2022-08-03T04:08:53;55788.81;;;-145.95;81.81
37648;BME280;23490;53.656;10.076;2022-08-03T04:11:40;55813.28;;;-145.95;81.23
37648;BME280;23490;53.656;10.076;2022-08-03T04:14:13;55768.41;;;-145.95;81.31
37648;BME280;23490;53.656;10.076;2022-08-03T04:16:45;55768.41;;;-145.95;81.65
37648;BME280;23490;53.656;10.076;2022-08-03T04:19:15;55760.25;;;-145.95;82.59
37648;BME280;23490;53.656;10.076;2022-08-03T04:21:43;55752.09;;;-145.95;81.25
37648;BME280;23490;53.656;10.076;2022-08-03T04:24:12;55760.25;;;-145.95;79.48
37648;BME280;23490;53.656;10.076;2022-08-03T04:26:40;55768.41;;;-145.95;81.16
37648;BME280;23490;53.656;10.076;2022-08-03T04:29:08;55784.72;;;-145.95;81.66
37648;BME280;23490;53.656;10.076;2022-08-03T04:31:35;55752.09;;;-145.95;81.69
37648;BME280;23490;53.656;10.076;2022-08-03T04:34:03;55794.94;;;-145.95;81.76
37648;BME280;23490;53.656;10.076;2022-08-03T04:36:31;55792.88;;;-145.95;81.01
37648;BME280;23490;53.656;10.076;2022-08-03T04:39:02;55752.09;;;-145.95;81.38
37648;BME280;23490;53.656;10.076;2022-08-03T04:41:29;55784.72;;;-145.95;82.20
37648;BME280;23490;53.656;10.076;2022-08-03T04:43:56;55776.56;;;-145.95;81.71
37648;BME280;23490;53.656;10.076;2022-08-03T04:46:26;55805.13;;;-145.95;81.46
37648;BME280;23490;53.656;10.076;2022-08-03T04:48:52;55776.56;;;-145.95;80.46
37648;BME280;23490;53.656;10.076;2022-08-03T04:51:18;55780.66;;;-145.95;80.50
37648;BME280;23490;53.656;10.076;2022-08-03T04:53:44;55819.41;;;-145.95;80.05
37648;BME280;23490;53.656;10.076;2022-08-03T04:56:09;55811.25;;;-145.95;79.68
37648;BME280;23490;53.656;10.076;2022-08-03T04:58:34;55792.88;;;-145.95;81.29
37648;BME280;23490;53.656;10.076;2022-08-03T05:01:00;55796.97;;;-145.95;81.14
37648;BME280;23490;53.656;10.076;2022-08-03T05:03:25;55760.25;;;-145.95;81.08
37648;BME280;23490;53.656;10.076;2022-08-03T05:05:51;55809.19;;;-145.95;80.60
37648;BME280;23490;53.656;10.076;2022-08-03T05:08:17;55772.50;;;-145.95;81.49
37648;BME280;23490;53.656;10.076;2022-08-03T05:10:42;55801.03;;;-145.95;81.14
37648;BME280;23490;53.656;10.076;2022-08-03T05:13:08;55784.72;;;-145.95;77.73
37648;BME280;23490;53.656;10.076;2022-08-03T05:15:38;55835.72;;;-145.95;80.25
37648;BME280;23490;53.656;10.076;2022-08-03T05:18:03;55801.03;;;-145.95;81.13
37648;BME280;23490;53.656;10.076;2022-08-03T05:20:29;55792.88;;;-145.95;81.73
37648;BME280;23490;53.656;10.076;2022-08-03T05:22:55;55756.19;;;-145.95;78.31
37648;BME280;23490;53.656;10.076;2022-08-03T05:25:21;55841.84;;;-145.95;79.43
37648;BME280;23490;53.656;10.076;2022-08-03T05:27:46;55805.13;;;-145.95;77.98
37648;BME280;23490;53.656;10.076;2022-08-03T05:30:12;55784.72;;;-145.95;75.92
37648;BME280;23490;53.656;10.076;2022-08-03T05:32:37;55792.88;;;-145.95;75.48
37648;BME280;23490;53.656;10.076;2022-08-03T05:35:03;55817.34;;;-145.95;75.54
37648;BME280;23490;53.656;10.076;2022-08-03T05:37:28;55833.66;;;-145.95;75.71
37648;BME280;23490;53.656;10.076;2022-08-03T05:39:53;55825.53;;;-145.95;75.33
37648;BME280;23490;53.656;10.076;2022-08-03T05:42:19;55796.97;;;-145.95;73.17
37648;BME280;23490;53.656;10.076;2022-08-03T05:44:44;55813.28;;;-145.95;72.08
37648;BME280;23490;53.656;10.076;2022-08-03T05:47:09;55809.19;;;-145.95;74.98
37648;BME280;23490;53.656;10.076;2022-08-03T05:49:35;55772.50;;;-145.95;73.20
37648;BME280;23490;53.656;10.076;2022-08-03T05:52:00;55862.22;;;-145.95;71.75
37648;BME280;23490;53.656;10.076;2022-08-03T05:54:25;55829.59;;;-145.95;70.86
37648;BME280;23490;53.656;10.076;2022-08-03T05:56:51;55837.75;;;-145.95;69.38
37648;BME280;23490;53.656;10.076;2022-08-03T05:59:16;55839.78;;;-145.95;69.34
37648;BME280;23490;53.656;10.076;2022-08-03T06:01:42;55847.94;;;-145.95;71.17
37648;BME280;23490;53.656;10.076;2022-08-03T06:04:07;55825.53;;;-145.95;69.10
37648;BME280;23490;53.656;10.076;2022-08-03T06:06:32;55809.19;;;-145.95;71.47
37648;BME280;23490;53.656;10.076;2022-08-03T06:08:58;55850.00;;;-145.95;72.09
37648;BME280;23490;53.656;10.076;2022-08-03T06:11:23;55829.59;;;-145.95;69.56
37648;BME280;23490;53.656;10.076;2022-08-03T06:13:49;55803.09;;;-145.95;69.11
37648;BME280;23490;53.656;10.076;2022-08-03T06:16:14;55817.34;;;-145.95;67.77
37648;BME280;23490;53.656;10.076;2022-08-03T06:18:40;55845.91;;;-145.95;67.55
37648;BME280;23490;53.656;10.076;2022-08-03T06:21:05;55799.00;;;-145.95;67.67
37648;BME280;23490;53.656;10.076;2022-08-03T06:23:31;55833.66;;;-145.95;67.17
37648;BME280;23490;53.656;10.076;2022-08-03T06:25:57;55829.59;;;-145.95;65.63
37648;BME280;23490;53.656;10.076;2022-08-03T06:28:22;55829.59;;;-145.95;65.42
37648;BME280;23490;53.656;10.076;2022-08-03T06:30:48;55829.59;;;-145.95;66.72
37648;BME280;23490;53.656;10.076;2022-08-03T06:33:13;55827.56;;;-145.95;65.61
37648;BME280;23490;53.656;10.076;2022-08-03T06:35:38;55837.75;;;-145.95;67.17
37648;BME280;23490;53.656;10.076;2022-08-03T06:38:04;55833.66;;;-145.95;66.40
37648;BME280;23490;53.656;10.076;2022-08-03T06:40:29;55841.84;;;-145.95;62.62
37648;BME280;23490;53.656;10.076;2022-08-03T06:42:59;55852.03;;;-145.95;64.70
37648;BME280;23490;53.656;10.076;2022-08-03T06:45:25;55866.31;;;-145.95;62.47
37648;BME280;23490;53.656;10.076;2022-08-03T06:48:06;55833.66;;;-145.95;59.90
37648;BME280;23490;53.656;10.076;2022-08-03T06:50:33;55829.59;;;-145.95;59.95
37648;BME280;23490;53.656;10.076;2022-08-03T06:52:59;55856.09;;;-145.95;60.39
37648;BME280;23490;53.656;10.076;2022-08-03T06:55:24;55833.66;;;-145.95;58.92
37648;BME280;23490;53.656;10.076;2022-08-03T06:57:50;55898.94;;;-145.95;58.48
37648;BME280;23490;53.656;10.076;2022-08-03T07:00:15;55866.31;;;-145.95;57.09
37648;BME280;23490;53.656;10.076;2022-08-03T07:02:41;55856.09;;;-145.95;57.84
37648;BME280;23490;53.656;10.076;2022-08-03T07:05:07;55854.06;;;-145.95;57.86
37648;BME280;23490;53.656;10.076;2022-08-03T07:07:33;55870.38;;;-145.95;56.96
37648;BME280;23490;53.656;10.076;2022-08-03T07:09:58;55821.44;;;-145.95;57.22
37648;BME280;23490;53.656;10.076;2022-08-03T07:12:25;55866.31;;;-145.95;57.00
37648;BME280;23490;53.656;10.076;2022-08-03T07:14:50;55854.06;;;-145.95;56.10
37648;BME280;23490;53.656;10.076;2022-08-03T07:17:16;55835.72;;;-145.95;55.26
37648;BME280;23490;53.656;10.076;2022-08-03T07:19:41;55850.00;;;-145.95;55.75
37648;BME280;23490;53.656;10.076;2022-08-03T07:22:07;55870.38;;;-145.95;56.87
37648;BME280;23490;53.656;10.076;2022-08-03T07:24:33;55858.16;;;-145.95;54.95
37648;BME280;23490;53.656;10.076;2022-08-03T07:26:58;55900.97;;;-145.95;55.60
37648;BME280;23490;53.656;10.076;2022-08-03T07:29:23;55858.16;;;-145.95;55.10
37648;BME280;23490;53.656;10.076;2022-08-03T07:31:49;55890.78;;;-145.95;55.09
37648;BME280;23490;53.656;10.076;2022-08-03T07:34:14;55854.06;;;-145.95;53.47
37648;BME280;23490;53.656;10.076;2022-08-03T07:36:39;55886.69;;;-145.95;53.77
37648;BME280;23490;53.656;10.076;2022-08-03T07:39:05;55872.41;;;-145.95;54.15
37648;BME280;23490;53.656;10.076;2022-08-03T07:41:30;55880.56;;;-145.95;52.36
37648;BME280;23490;53.656;10.076;2022-08-03T07:43:56;55850.00;;;-145.95;53.04
37648;BME280;23490;53.656;10.076;2022-08-03T07:46:21;55852.03;;;-145.95;52.70
37648;BME280;23490;53.656;10.076;2022-08-03T07:48:47;55866.31;;;-145.95;51.89
37648;BME280;23490;53.656;10.076;2022-08-03T07:51:12;55880.56;;;-145.95;51.58
37648;BME280;23490;53.656;10.076;2022-08-03T07:53:38;55894.84;;;-145.95;51.06
37648;BME280;23490;53.656;10.076;2022-08-03T07:56:03;55858.16;;;-145.95;51.81
37648;BME280;23490;53.656;10.076;2022-08-03T07:58:29;55870.38;;;-145.95;51.90
37648;BME280;23490;53.656;10.076;2022-08-03T08:00:54;55870.38;;;-145.95;52.89
37648;BME280;23490;53.656;10.076;2022-08-03T08:03:19;55878.53;;;-145.95;51.67
37648;BME280;23490;53.656;10.076;2022-08-03T08:05:46;55880.56;;;-145.95;52.19
37648;BME280;23490;53.656;10.076;2022-08-03T08:08:12;55905.03;;;-145.95;50.99
37648;BME280;23490;53.656;10.076;2022-08-03T08:10:37;55874.47;;;-145.95;51.21
37648;BME280;23490;53.656;10.076;2022-08-03T08:13:03;55868.34;;;-145.95;50.48
37648;BME280;23490;53.656;10.076;2022-08-03T08:15:29;55870.38;;;-145.95;49.86
37648;BME280;23490;53.656;10.076;2022-08-03T08:17:59;55907.09;;;-145.95;51.14
37648;BME280;23490;53.656;10.076;2022-08-03T08:20:33;55878.53;;;-145.95;50.94
37648;BME280;23490;53.656;10.076;2022-08-03T08:23:04;55890.78;;;-145.95;50.35
37648;BME280;23490;53.656;10.076;2022-08-03T08:25:30;55876.50;;;-145.95;50.56
37648;BME280;23490;53.656;10.076;2022-08-03T08:27:56;55862.22;;;-145.95;48.41
37648;BME280;23490;53.656;10.076;2022-08-03T08:30:22;55854.06;;;-145.95;48.00
37648;BME280;23490;53.656;10.076;2022-08-03T08:32:49;55866.31;;;-145.95;46.39
37648;BME280;23490;53.656;10.076;2022-08-03T08:35:15;55907.09;;;-145.95;46.32
37648;BME280;23490;53.656;10.076;2022-08-03T08:37:41;55905.03;;;-145.95;45.46
37648;BME280;23490;53.656;10.076;2022-08-03T08:40:08;55898.94;;;-145.95;45.78
37648;BME280;23490;53.656;10.076;2022-08-03T08:42:36;55911.16;;;-145.95;45.80
37648;BME280;23490;53.656;10.076;2022-08-03T08:45:03;55929.50;;;-145.95;45.73
37648;BME280;23490;53.656;10.076;2022-08-03T08:47:38;55935.63;;;-145.95;44.60
37648;BME280;23490;53.656;10.076;2022-08-03T08:50:05;55917.28;;;-145.95;43.86
37648;BME280;23490;53.656;10.076;2022-08-03T08:52:32;55868.34;;;-145.95;44.80
37648;BME280;23490;53.656;10.076;2022-08-03T08:55:02;55911.16;;;-145.95;44.11
37648;BME280;23490;53.656;10.076;2022-08-03T08:57:30;55878.53;;;-145.95;44.00
37648;BME280;23490;53.656;10.076;2022-08-03T08:59:57;55874.47;;;-145.95;44.34
37648;BME280;23490;53.656;10.076;2022-08-03T09:02:23;55927.47;;;-145.95;43.17
37648;BME280;23490;53.656;10.076;2022-08-03T09:04:49;55966.22;;;-145.95;43.23
37648;BME280;23490;53.656;10.076;2022-08-03T09:07:17;55935.63;;;-145.95;43.53
37648;BME280;23490;53.656;10.076;2022-08-03T09:09:42;55890.78;;;-145.95;43.61
37648;BME280;23490;53.656;10.076;2022-08-03T09:12:08;55898.94;;;-145.95;43.14
37648;BME280;23490;53.656;10.076;2022-08-03T09:14:33;55907.09;;;-145.95;43.53
37648;BME280;23490;53.656;10.076;2022-08-03T09:17:00;55919.31;;;-145.95;42.27
37648;BME280;23490;53.656;10.076;2022-08-03T09:19:27;55921.34;;;-145.95;42.71
37648;BME280;23490;53.656;10.076;2022-08-03T09:22:16;55931.56;;;-145.95;41.90
37648;BME280;23490;53.656;10.076;2022-08-03T09:24:55;55931.56;;;-145.95;41.78
37648;BME280;23490;53.656;10.076;2022-08-03T09:27:21;55927.47;;;-145.95;41.15
37648;BME280;23490;53.656;10.076;2022-08-03T09:29:48;55937.66;;;-145.95;41.40
37648;BME280;23490;53.656;10.076;2022-08-03T09:32:14;55943.78;;;-145.95;41.40
37648;BME280;23490;53.656;10.076;2022-08-03T09:34:41;55927.47;;;-145.95;41.27
37648;BME280;23490;53.656;10.076;2022-08-03T09:37:13;55945.84;;;-145.95;41.77
37648;BME280;23490;53.656;10.076;2022-08-03T09:39:40;55907.09;;;-145.95;41.15
37648;BME280;23490;53.656;10.076;2022-08-03T09:42:08;55984.56;;;-145.95;40.40
37648;BME280;23490;53.656;10.076;2022-08-03T09:44:35;55919.31;;;-145.95;41.88
37648;BME280;23490;53.656;10.076;2022-08-03T09:47:02;55949.91;;;-145.95;41.16
37648;BME280;23490;53.656;10.076;2022-08-03T09:49:28;55956.03;;;-145.95;40.70
37648;BME280;23490;53.656;10.076;2022-08-03T09:51:54;55931.56;;;-145.95;41.22
37648;BME280;23490;53.656;10.076;2022-08-03T09:54:29;55923.41;;;-145.95;39.76
37648;BME280;23490;53.656;10.076;2022-08-03T09:56:55;55964.19;;;-145.95;39.24
37648;BME280;23490;53.656;10.076;2022-08-03T09:59:26;55931.56;;;-145.95;38.36
37648;BME280;23490;53.656;10.076;2022-08-03T10:01:52;55933.59;;;-145.95;38.91
37648;BME280;23490;53.656;10.076;2022-08-03T10:04:18;55947.88;;;-145.95;38.79
37648;BME280;23490;53.656;10.076;2022-08-03T10:07:00;55927.47;;;-145.95;39.00
37648;BME280;23490;53.656;10.076;2022-08-03T10:09:25;55913.19;;;-145.95;38.17
37648;BME280;23490;53.656;10.076;2022-08-03T10:11:51;55933.59;;;-145.95;39.09
37648;BME280;23490;53.656;10.076;2022-08-03T10:14:16;55947.88;;;-145.95;38.42
37648;BME280;23490;53.656;10.076;2022-08-03T10:16:46;55907.09;;;-145.95;38.76
37648;BME280;23490;53.656;10.076;2022-08-03T10:19:12;56000.88;;;-145.95;37.72
37648;BME280;23490;53.656;10.076;2022-08-03T10:21:40;55900.97;;;-145.95;36.98
37648;BME280;23490;53.656;10.076;2022-08-03T10:24:08;55931.56;;;-145.95;36.99
37648;BME280;23490;53.656;10.076;2022-08-03T10:26:38;55960.09;;;-145.95;37.84
37648;BME280;23490;53.656;10.076;2022-08-03T10:29:11;55947.88;;;-145.95;37.86
37648;BME280;23490;53.656;10.076;2022-08-03T10:31:44;55929.50;;;-145.95;37.47
37648;BME280;23490;53.656;10.076;2022-08-03T10:34:21;55943.78;;;-145.95;37.88
37648;BME280;23490;53.656;10.076;2022-08-03T10:36:48;55958.06;;;-145.95;37.09
37648;BME280;23490;53.656;10.076;2022-08-03T10:39:18;55913.19;;;-145.95;37.72
37648;BME280;23490;53.656;10.076;2022-08-03T10:41:45;55913.19;;;-145.95;37.04
37648;BME280;23490;53.656;10.076;2022-08-03T10:44:17;55898.94;;;-145.95;37.36
37648;BME280;23490;53.656;10.076;2022-08-03T10:46:43;55931.56;;;-145.95;39.29
37648;BME280;23490;53.656;10.076;2022-08-03T10:49:14;55943.78;;;-145.95;38.16
37648;BME280;23490;53.656;10.076;2022-08-03T10:51:41;55923.41;;;-145.95;38.49
37648;BME280;23490;53.656;10.076;2022-08-03T10:54:41;55939.72;;;-145.95;36.75
37648;BME280;23490;53.656;10.076;2022-08-03T10:57:57;55919.31;;;-145.95;37.88
37648;BME280;23490;53.656;10.076;2022-08-03T11:00:24;55915.25;;;-145.95;38.06
37648;BME280;23490;53.656;10.076;2022-08-03T11:03:10;55947.88;;;-145.95;38.50
37648;BME280;23490;53.656;10.076;2022-08-03T11:05:40;55931.56;;;-145.95;38.06
37648;BME280;23490;53.656;10.076;2022-08-03T11:10:43;55945.84;;;-145.95;37.89
37648;BME280;23490;53.656;10.076;2022-08-03T11:13:10;55951.94;;;-145.95;38.61
37648;BME280;23490;53.656;10.076;2022-08-03T11:15:36;55956.03;;;-145.95;38.42
37648;BME280;23490;53.656;10.076;2022-08-03T11:18:09;55931.56;;;-145.95;37.97
37648;BME280;23490;53.656;10.076;2022-08-03T11:20:52;55919.31;;;-145.95;37.66
37648;BME280;23490;53.656;10.076;2022-08-03T11:26:16;55943.78;;;-145.95;36.38
37648;BME280;23490;53.656;10.076;2022-08-03T11:28:44;55966.22;;;-145.95;36.50
37648;BME280;23490;53.656;10.076;2022-08-03T11:34:06;55937.66;;;-145.95;36.22
37648;BME280;23490;53.656;10.076;2022-08-03T11:39:42;55927.47;;;-145.95;36.62
37648;BME280;23490;53.656;10.076;2022-08-03T11:44:51;55923.41;;;-145.95;35.80
37648;BME280;23490;53.656;10.076;2022-08-03T11:47:17;55923.41;;;-145.95;37.01
37648;BME280;23490;53.656;10.076;2022-08-03T11:49:47;55939.72;;;-145.95;36.34
37648;BME280;23490;53.656;10.076;2022-08-03T11:52:13;55953.97;;;-145.95;35.09
37648;BME280;23490;53.656;10.076;2022-08-03T11:54:41;55939.72;;;-145.95;35.35
37648;BME280;23490;53.656;10.076;2022-08-03T11:57:06;55884.66;;;-145.95;34.75
37648;BME280;23490;53.656;10.076;2022-08-03T11:59:33;55939.72;;;-145.95;35.25
37648;BME280;23490;53.656;10.076;2022-08-03T12:02:10;55927.47;;;-145.95;34.76
37648;BME280;23490;53.656;10.076;2022-08-03T12:04:49;55947.88;;;-145.95;33.90
37648;BME280;23490;53.656;10.076;2022-08-03T12:07:15;55956.03;;;-145.95;33.83
37648;BME280;23490;53.656;10.076;2022-08-03T12:09:42;55947.88;;;-145.95;35.07
37648;BME280;23490;53.656;10.076;2022-08-03T12:12:07;55921.34;;;-145.95;35.15
37648;BME280;23490;53.656;10.076;2022-08-03T12:14:33;55947.88;;;-145.95;35.22
37648;BME280;23490;53.656;10.076;2022-08-03T12:16:58;55958.06;;;-145.95;34.95
37648;BME280;23490;53.656;10.076;2022-08-03T12:19:23;55931.56;;;-145.95;34.62
37648;BME280;23490;53.656;10.076;2022-08-03T12:21:49;55919.31;;;-145.95;35.15
37648;BME280;23490;53.656;10.076;2022-08-03T12:24:15;55984.56;;;-145.95;35.20
37648;BME280;23490;53.656;10.076;2022-08-03T12:26:48;55931.56;;;-145.95;33.92
37648;BME280;23490;53.656;10.076;2022-08-03T12:29:18;55935.63;;;-145.95;33.51
37648;BME280;23490;53.656;10.076;2022-08-03T12:31:44;55921.34;;;-145.95;32.96
37648;BME280;23490;53.656;10.076;2022-08-03T12:34:10;55907.09;;;-145.95;32.88
37648;BME280;23490;53.656;10.076;2022-08-03T12:36:36;55929.50;;;-145.95;34.29
37648;BME280;23490;53.656;10.076;2022-08-03T12:39:05;55919.31;;;-145.95;34.17
37648;BME280;23490;53.656;10.076;2022-08-03T12:41:36;55939.72;;;-145.95;34.93
37648;BME280;23490;53.656;10.076;2022-08-03T12:44:03;55935.63;;;-145.95;34.75
37648;BME280;23490;53.656;10.076;2022-08-03T12:46:36;55905.03;;;-145.95;35.49
37648;BME280;23490;53.656;10.076;2022-08-03T12:51:37;55935.63;;;-145.95;33.66
37648;BME280;23490;53.656;10.076;2022-08-03T12:54:26;55941.75;;;-145.95;33.69
37648;BME280;23490;53.656;10.076;2022-08-03T12:57:03;55878.53;;;-145.95;33.54
37648;BME280;23490;53.656;10.076;2022-08-03T12:59:31;55921.34;;;-145.95;33.05
37648;BME280;23490;53.656;10.076;2022-08-03T13:01:57;55921.34;;;-145.95;32.61